Time;durP1;ratioP1;P1;durP2;ratioP2;P2;SDS_P1;SDS_P2;PMS_P1;PMS_P2;Temp;Humidity;BMP_temperature;BMP_pressure;BME280_temperature;BME280_humidity;BME280_pressure;Samples;Min_cycle;Max_cycle;Signal;HPM_P1;HPM_P2
2022/04/22 00:00:29;;;;;;;36.43;20.03;;;9.10;99.90;;;;;;5121025;27;20472;-76
2022/04/22 00:02:57;;;;;;;35.20;20.30;;;9.10;99.90;;;;;;5118702;27;20558;-76
2022/04/22 00:05:23;;;;;;;34.23;19.70;;;9.10;99.90;;;;;;5116758;27;20450;-76
2022/04/22 00:07:50;;;;;;;37.67;20.77;;;9.10;99.90;;;;;;5122984;27;20839;-76
2022/04/22 00:10:17;;;;;;;39.23;20.40;;;9.10;99.90;;;;;;5122611;27;20489;-76
2022/04/22 00:12:44;;;;;;;36.97;19.43;;;9.10;99.90;;;;;;5116852;27;20456;-76
2022/04/22 00:15:13;;;;;;;39.43;20.97;;;9.10;99.90;;;;;;5117904;27;20499;-76
2022/04/22 00:17:40;;;;;;;41.17;21.30;;;9.10;99.90;;;;;;5121632;27;20639;-76
2022/04/22 00:20:10;;;;;;;40.20;21.30;;;9.10;99.90;;;;;;5118870;27;20460;-76
2022/04/22 00:22:39;;;;;;;45.00;22.23;;;9.10;99.90;;;;;;5120994;27;20477;-75
2022/04/22 00:25:10;;;;;;;34.40;21.07;;;9.00;99.90;;;;;;5117944;27;20828;-75
2022/04/22 00:27:37;;;;;;;39.97;21.43;;;9.00;99.90;;;;;;5121753;27;20472;-75
2022/04/22 00:30:06;;;;;;;39.23;21.23;;;9.00;99.90;;;;;;5119023;27;20534;-76
2022/04/22 00:32:34;;;;;;;35.57;20.47;;;9.00;99.90;;;;;;5110760;28;20491;-76
2022/04/22 00:35:01;;;;;;;36.27;20.23;;;9.10;99.90;;;;;;5110978;28;20453;-76
2022/04/22 00:37:29;;;;;;;38.90;22.00;;;9.10;99.90;;;;;;5111088;28;20446;-76
2022/04/22 00:39:56;;;;;;;38.63;21.20;;;9.10;99.90;;;;;;5111221;28;20511;-76
2022/04/22 00:42:24;;;;;;;41.03;21.50;;;9.10;99.90;;;;;;5110491;27;20484;-76
2022/04/22 00:44:51;;;;;;;41.57;22.50;;;9.10;99.90;;;;;;5110361;28;20442;-76
2022/04/22 00:47:17;;;;;;;44.83;22.37;;;9.10;99.90;;;;;;5117114;27;20843;-75
2022/04/22 00:49:44;;;;;;;40.93;21.87;;;9.00;99.90;;;;;;5114673;27;20545;-76
2022/04/22 00:52:11;;;;;;;43.17;22.40;;;9.00;99.90;;;;;;5124239;27;20509;-76
2022/04/22 00:54:39;;;;;;;52.07;23.80;;;9.00;99.90;;;;;;5122260;27;20445;-76
2022/04/22 00:57:06;;;;;;;44.67;21.93;;;8.90;99.90;;;;;;5126021;27;20637;-76
2022/04/22 00:59:34;;;;;;;42.40;22.50;;;8.80;99.90;;;;;;5126779;27;20473;-76
2022/04/22 01:02:00;;;;;;;42.00;22.87;;;8.80;99.90;;;;;;5128600;27;20480;-76
2022/04/22 01:09:57;;;;;;;35.57;20.90;;;8.60;99.90;;;;;;5113484;27;20482;-75
2022/04/22 01:12:26;;;;;;;45.40;22.40;;;8.60;99.90;;;;;;5124991;27;20501;-75
2022/04/22 01:14:53;;;;;;;41.97;21.90;;;8.50;99.90;;;;;;5116073;27;20446;-76
2022/04/22 01:17:20;;;;;;;47.20;23.67;;;8.50;99.90;;;;;;5120238;27;20442;-76
2022/04/22 01:19:47;;;;;;;41.13;21.60;;;8.50;99.90;;;;;;5125275;27;20468;-76
2022/04/22 01:22:15;;;;;;;38.53;22.23;;;8.50;99.90;;;;;;5120896;27;20899;-76
2022/04/22 01:24:42;;;;;;;41.27;22.70;;;8.50;99.90;;;;;;5123617;27;20455;-75
2022/04/22 01:27:10;;;;;;;43.03;22.67;;;8.40;99.90;;;;;;5123836;27;20448;-76
2022/04/22 01:29:37;;;;;;;44.73;23.10;;;8.40;99.90;;;;;;5114745;28;20556;-75
2022/04/22 01:32:04;;;;;;;44.27;23.40;;;8.40;99.90;;;;;;5121600;28;20449;-75
2022/04/22 01:34:31;;;;;;;44.93;23.43;;;8.40;99.90;;;;;;5122035;28;20457;-76
2022/04/22 01:36:58;;;;;;;43.73;22.60;;;8.40;99.90;;;;;;5126269;28;20498;-76
2022/04/22 01:39:29;;;;;;;40.70;22.17;;;8.40;99.90;;;;;;5116964;28;20869;-75
2022/04/22 01:41:55;;;;;;;41.00;22.10;;;8.40;99.90;;;;;;5126049;28;20451;-76
2022/04/22 01:44:22;;;;;;;42.77;23.00;;;8.40;99.90;;;;;;5117992;28;20449;-76
2022/04/22 01:46:49;;;;;;;40.57;22.50;;;8.30;99.90;;;;;;5114537;28;20505;-76
2022/04/22 01:49:15;;;;;;;41.13;20.27;;;8.30;99.90;;;;;;5117689;28;20465;-76
2022/04/22 01:51:42;;;;;;;44.93;23.30;;;8.20;99.90;;;;;;5114492;27;20530;-76
2022/04/22 01:54:09;;;;;;;41.27;21.53;;;8.20;99.90;;;;;;5124258;28;20566;-75
2022/04/22 01:56:37;;;;;;;43.00;22.97;;;8.20;99.90;;;;;;5125184;28;20441;-75
2022/04/22 01:59:03;;;;;;;40.53;21.60;;;8.20;99.90;;;;;;5118683;28;20466;-76
2022/04/22 02:01:30;;;;;;;43.67;21.17;;;8.10;99.90;;;;;;5115581;28;20507;-76
2022/04/22 02:03:57;;;;;;;44.07;21.67;;;8.10;99.90;;;;;;5120120;28;20937;-76
2022/04/22 02:06:23;;;;;;;41.90;20.87;;;8.10;99.90;;;;;;5124914;28;20454;-76
2022/04/22 02:08:50;;;;;;;43.10;22.17;;;8.10;99.90;;;;;;5126644;27;20445;-76
2022/04/22 02:11:17;;;;;;;47.13;22.97;;;8.10;99.90;;;;;;5124805;27;20537;-76
2022/04/22 02:13:45;;;;;;;44.63;22.97;;;8.10;99.90;;;;;;5123970;27;20442;-76
2022/04/22 02:16:12;;;;;;;41.20;21.53;;;8.10;99.90;;;;;;5130876;27;20502;-75
2022/04/22 02:18:41;;;;;;;46.90;22.70;;;8.00;99.90;;;;;;5120489;27;20898;-76
2022/04/22 02:21:09;;;;;;;42.10;22.90;;;8.00;99.90;;;;;;5126743;27;20465;-76
2022/04/22 02:23:37;;;;;;;45.33;23.90;;;8.00;99.90;;;;;;5117506;27;20514;-76
2022/04/22 02:26:04;;;;;;;45.57;21.90;;;7.90;99.90;;;;;;5119051;27;20543;-75
2022/04/22 02:28:33;;;;;;;41.83;21.67;;;7.90;99.90;;;;;;5122924;27;20450;-76
2022/04/22 02:31:03;;;;;;;45.03;23.50;;;7.90;99.90;;;;;;5124537;27;20524;-76
2022/04/22 02:33:30;;;;;;;44.33;21.80;;;7.90;99.90;;;;;;5118779;27;20998;-76
2022/04/22 02:35:57;;;;;;;36.17;21.70;;;7.90;99.90;;;;;;5121194;27;20664;-75
2022/04/22 02:38:24;;;;;;;41.90;22.53;;;7.90;99.90;;;;;;5126123;27;20473;-76
2022/04/22 02:46:20;;;;;;;43.77;21.53;;;7.90;99.90;;;;;;5116267;27;20461;-76
2022/04/22 02:48:47;;;;;;;41.30;21.03;;;7.90;99.90;;;;;;5118323;27;20513;-76
2022/04/22 02:51:13;;;;;;;39.40;21.40;;;7.90;99.90;;;;;;5118078;27;20538;-76
2022/04/22 02:53:40;;;;;;;45.07;23.47;;;7.90;99.90;;;;;;5125988;27;20445;-76
2022/04/22 02:56:07;;;;;;;42.90;21.27;;;7.90;99.90;;;;;;5131122;27;20445;-76
2022/04/22 02:58:35;;;;;;;42.03;22.27;;;7.80;99.90;;;;;;5122898;27;20449;-76
2022/04/22 03:01:02;;;;;;;42.70;24.23;;;7.80;99.90;;;;;;5130818;27;20517;-76
2022/04/22 03:03:31;;;;;;;39.13;21.37;;;7.70;99.90;;;;;;5127772;27;20545;-76
2022/04/22 03:05:57;;;;;;;42.27;21.47;;;7.70;99.90;;;;;;5124891;27;20445;-76
2022/04/22 03:08:24;;;;;;;41.60;22.63;;;7.60;99.90;;;;;;5120330;27;20498;-75
2022/04/22 03:10:51;;;;;;;39.00;21.77;;;7.60;99.90;;;;;;5125444;27;20508;-76
2022/04/22 03:13:18;;;;;;;41.63;23.33;;;7.50;99.90;;;;;;5116670;27;20498;-76
2022/04/22 03:15:45;;;;;;;44.03;22.93;;;7.50;99.90;;;;;;5112742;28;20845;-76
2022/04/22 03:18:11;;;;;;;36.43;20.70;;;7.50;99.90;;;;;;5112377;28;20459;-76
2022/04/22 03:20:40;;;;;;;47.53;22.80;;;7.40;99.90;;;;;;5111873;28;20547;-76
2022/04/22 03:23:06;;;;;;;42.73;22.90;;;7.40;99.90;;;;;;5112720;28;20453;-75
2022/04/22 03:25:33;;;;;;;43.87;22.97;;;7.30;99.90;;;;;;5111868;28;20511;-76
2022/04/22 03:27:59;;;;;;;40.77;23.10;;;7.30;99.90;;;;;;5121684;27;20451;-76
2022/04/22 03:30:26;;;;;;;41.73;22.10;;;7.30;99.90;;;;;;5121604;27;20481;-75
2022/04/22 03:32:53;;;;;;;46.97;22.27;;;7.20;99.90;;;;;;5121823;27;20453;-76
2022/04/22 03:35:19;;;;;;;42.63;23.17;;;7.20;99.90;;;;;;5125896;27;20936;-76
2022/04/22 03:37:47;;;;;;;45.83;23.27;;;7.20;99.90;;;;;;5122543;27;20453;-75
2022/04/22 03:40:14;;;;;;;42.30;22.50;;;7.20;99.90;;;;;;5119459;27;20473;-74
2022/04/22 03:42:41;;;;;;;37.57;20.40;;;7.20;99.90;;;;;;5116784;27;20467;-74
2022/04/22 03:45:09;;;;;;;43.73;22.33;;;7.20;99.90;;;;;;5128330;27;20821;-74
2022/04/22 03:47:36;;;;;;;40.93;21.17;;;7.20;99.90;;;;;;5118556;27;20954;-73
2022/04/22 03:50:02;;;;;;;38.83;20.77;;;7.20;99.90;;;;;;5124240;27;20468;-73
2022/04/22 03:52:29;;;;;;;44.67;22.50;;;7.20;99.90;;;;;;5119172;27;20493;-73
2022/04/22 03:54:57;;;;;;;40.73;20.80;;;7.20;99.90;;;;;;5122734;27;20976;-73
2022/04/22 04:00:08;;;;;;;39.70;21.13;;;7.10;99.90;;;;;;5114802;27;20461;-74
2022/04/22 04:02:35;;;;;;;36.90;20.77;;;7.10;99.90;;;;;;5116876;27;20458;-74
2022/04/22 04:05:02;;;;;;;40.13;21.33;;;7.10;99.90;;;;;;5120121;27;20449;-73
2022/04/22 04:07:29;;;;;;;39.50;20.47;;;7.10;99.90;;;;;;5116926;27;20442;-74
2022/04/22 04:18:09;;;;;;;41.30;21.83;;;7.00;99.90;;;;;;5118971;27;20522;-73
2022/04/22 04:23:20;;;;;;;40.93;20.60;;;7.00;99.90;;;;;;5126844;27;20443;-73
2022/04/22 04:25:49;;;;;;;37.87;21.80;;;7.20;99.90;;;;;;5127583;27;20452;-73
2022/04/22 04:28:17;;;;;;;42.53;22.53;;;7.10;99.90;;;;;;5118048;27;20467;-73
2022/04/22 04:30:44;;;;;;;38.90;21.17;;;7.10;99.90;;;;;;5126683;27;20494;-73
2022/04/22 04:33:11;;;;;;;37.93;20.80;;;7.10;99.90;;;;;;5114547;27;20453;-74
2022/04/22 04:35:39;;;;;;;34.80;19.53;;;7.20;99.90;;;;;;5120804;27;21218;-74
2022/04/22 04:38:07;;;;;;;35.27;19.33;;;7.20;99.90;;;;;;5123755;27;20481;-74
2022/04/22 04:40:35;;;;;;;39.50;21.00;;;7.30;99.90;;;;;;5120227;27;20517;-74
2022/04/22 04:43:03;;;;;;;36.63;19.30;;;7.40;99.90;;;;;;5119003;27;20473;-73
2022/04/22 04:45:30;;;;;;;32.33;19.13;;;7.40;99.90;;;;;;5116012;27;20453;-74
2022/04/22 04:47:57;;;;;;;34.73;18.80;;;7.50;99.90;;;;;;5118247;27;20450;-74
2022/04/22 04:50:24;;;;;;;36.20;19.07;;;7.50;99.90;;;;;;5119060;27;20478;-73
2022/04/22 04:52:50;;;;;;;34.30;19.50;;;7.60;99.90;;;;;;5114618;27;20460;-74
2022/04/22 04:55:17;;;;;;;34.27;19.60;;;7.70;99.90;;;;;;5113507;27;20445;-74
2022/04/22 04:57:44;;;;;;;31.10;18.37;;;7.80;99.90;;;;;;5125452;27;20445;-73
2022/04/22 05:00:13;;;;;;;32.30;18.90;;;7.90;99.90;;;;;;5120754;27;20548;-74
2022/04/22 05:02:40;;;;;;;32.63;17.93;;;8.10;99.90;;;;;;5126097;27;20457;-74
2022/04/22 05:05:09;;;;;;;31.37;17.80;;;8.10;99.90;;;;;;5113540;27;20454;-74
2022/04/22 05:07:47;;;;;;;31.33;17.63;;;8.20;99.90;;;;;;5119963;27;20445;-73
2022/04/22 05:10:14;;;;;;;31.30;16.90;;;8.30;99.90;;;;;;5117443;27;20470;-74
2022/04/22 05:12:41;;;;;;;30.60;19.30;;;8.30;99.90;;;;;;5116829;27;20494;-73
2022/04/22 05:15:10;;;;;;;31.63;18.90;;;8.40;99.90;;;;;;5116451;27;20921;-73
2022/04/22 05:17:39;;;;;;;29.70;17.93;;;8.40;99.90;;;;;;5124776;27;20481;-74
2022/04/22 05:20:07;;;;;;;34.60;20.40;;;8.40;99.90;;;;;;5116096;27;20491;-74
2022/04/22 05:22:34;;;;;;;37.60;19.10;;;8.40;99.90;;;;;;5118967;27;20446;-74
2022/04/22 05:25:00;;;;;;;33.13;18.83;;;8.50;99.90;;;;;;5127648;27;20456;-74
2022/04/22 05:27:27;;;;;;;27.77;17.47;;;8.60;99.90;;;;;;5122565;27;21105;-74
2022/04/22 05:32:39;;;;;;;30.53;18.50;;;9.00;99.90;;;;;;5124732;28;20472;-75
2022/04/22 05:35:07;;;;;;;31.73;18.43;;;9.10;99.90;;;;;;5120435;28;20456;-75
2022/04/22 05:37:44;;;;;;;30.10;17.17;;;9.50;99.90;;;;;;5119513;27;20441;-74
2022/04/22 05:40:12;;;;;;;29.50;16.30;;;9.50;99.90;;;;;;5116452;28;20522;-75
2022/04/22 05:42:39;;;;;;;25.77;17.00;;;9.70;99.90;;;;;;5122020;27;20862;-75
2022/04/22 05:45:07;;;;;;;26.67;16.77;;;10.00;99.90;;;;;;5121471;27;21194;-75
2022/04/22 05:47:34;;;;;;;24.80;15.77;;;10.10;99.90;;;;;;5114284;28;20482;-75
2022/04/22 05:50:02;;;;;;;27.20;16.73;;;10.20;99.90;;;;;;5113701;28;20534;-75
2022/04/22 05:52:29;;;;;;;25.50;16.50;;;10.40;99.90;;;;;;5114011;28;20485;-75
2022/04/22 05:54:57;;;;;;;26.20;15.60;;;10.50;99.90;;;;;;5113695;28;20514;-75
2022/04/22 05:57:24;;;;;;;24.20;16.40;;;10.60;99.90;;;;;;5115470;27;20453;-75
2022/04/22 05:59:51;;;;;;;25.40;16.30;;;10.80;99.90;;;;;;5113754;28;20552;-77
2022/04/22 06:02:18;;;;;;;23.80;15.77;;;11.00;99.90;;;;;;5115350;27;20434;-77
2022/04/22 06:04:46;;;;;;;23.30;16.47;;;11.00;99.90;;;;;;5124088;27;20823;-77
2022/04/22 06:07:14;;;;;;;24.77;15.87;;;11.00;99.90;;;;;;5122370;27;20948;-76
2022/04/22 06:12:25;;;;;;;24.40;16.17;;;11.20;99.90;;;;;;5126170;27;20609;-77
2022/04/22 06:14:51;;;;;;;30.20;15.43;;;11.40;99.90;;;;;;5124210;27;21011;-77
2022/04/22 06:17:18;;;;;;;25.93;16.57;;;11.60;99.90;;;;;;5118493;27;20490;-77
2022/04/22 06:19:45;;;;;;;23.80;16.53;;;11.70;99.90;;;;;;5126732;27;20841;-77
2022/04/22 06:22:11;;;;;;;22.60;15.30;;;11.90;99.90;;;;;;5119871;27;20866;-77
2022/04/22 06:24:39;;;;;;;25.40;16.27;;;12.10;99.90;;;;;;5124158;27;20510;-77
2022/04/22 06:27:06;;;;;;;26.43;16.80;;;12.00;99.90;;;;;;5128228;27;20505;-78
2022/04/22 06:29:33;;;;;;;21.17;15.47;;;12.10;99.90;;;;;;5128183;27;20475;-78
2022/04/22 06:32:01;;;;;;;24.30;15.90;;;12.10;99.90;;;;;;5124606;27;20477;-77
2022/04/22 06:34:28;;;;;;;26.00;16.67;;;12.10;99.90;;;;;;5124691;27;20458;-79
2022/04/22 06:36:55;;;;;;;23.43;15.60;;;12.10;99.90;;;;;;5122935;27;20567;-78
2022/04/22 06:39:22;;;;;;;24.57;14.87;;;12.30;99.90;;;;;;5123833;27;20983;-79
2022/04/22 06:47:22;;;;;;;26.50;15.80;;;12.70;99.90;;;;;;5123041;27;20437;-79
2022/04/22 06:49:49;;;;;;;21.90;15.10;;;12.70;99.90;;;;;;5127560;27;20507;-78
2022/04/22 06:52:16;;;;;;;22.03;14.93;;;12.70;99.90;;;;;;5128319;27;20894;-78
2022/04/22 06:54:43;;;;;;;21.47;14.43;;;12.60;99.90;;;;;;5116210;27;20494;-79
2022/04/22 06:57:12;;;;;;;23.40;15.07;;;12.70;99.90;;;;;;5131011;27;20441;-79
2022/04/22 06:59:39;;;;;;;20.20;14.40;;;12.80;99.90;;;;;;5126272;27;20468;-78
2022/04/22 07:02:07;;;;;;;21.73;15.13;;;12.80;99.90;;;;;;5116924;27;20493;-78
2022/04/22 07:04:35;;;;;;;35.87;15.03;;;13.00;99.90;;;;;;5125186;27;20866;-79
2022/04/22 07:07:03;;;;;;;19.70;14.30;;;13.10;99.90;;;;;;5119068;27;20447;-79
2022/04/22 07:09:30;;;;;;;20.37;14.10;;;13.20;99.90;;;;;;5124412;27;20472;-79
2022/04/22 07:11:58;;;;;;;21.53;13.80;;;13.30;99.90;;;;;;5118528;27;20548;-78
2022/04/22 07:14:26;;;;;;;23.33;13.90;;;13.10;99.90;;;;;;5122068;27;20449;-78
2022/04/22 07:16:53;;;;;;;22.80;14.30;;;13.00;99.90;;;;;;5115814;27;20514;-78
2022/04/22 07:19:20;;;;;;;24.00;15.70;;;13.10;99.90;;;;;;5124027;27;20522;-80
2022/04/22 07:21:48;;;;;;;22.40;14.03;;;13.20;99.90;;;;;;5111783;28;20449;-79
2022/04/22 07:24:15;;;;;;;20.40;14.00;;;13.30;99.90;;;;;;5110997;28;20454;-78
2022/04/22 07:26:44;;;;;;;19.80;13.20;;;13.50;99.90;;;;;;5119344;27;20462;-79
2022/04/22 07:29:14;;;;;;;19.10;12.97;;;13.60;99.90;;;;;;5120083;27;20945;-78
2022/04/22 07:31:42;;;;;;;19.20;14.50;;;13.60;99.90;;;;;;5120009;27;20550;-77
2022/04/22 07:34:09;;;;;;;20.83;13.77;;;13.60;99.90;;;;;;5122377;27;20440;-78
2022/04/22 07:36:37;;;;;;;25.97;14.40;;;13.70;99.90;;;;;;5121528;27;20477;-78
2022/04/22 07:39:04;;;;;;;19.40;13.63;;;13.70;99.90;;;;;;5117260;27;20498;-79
2022/04/22 07:41:33;;;;;;;20.63;14.33;;;13.80;99.90;;;;;;5119965;27;20475;-78
2022/04/22 07:46:58;;;;;;;20.83;13.40;;;14.20;99.90;;;;;;5120086;27;20819;-77
2022/04/22 07:49:26;;;;;;;20.37;14.33;;;14.40;99.90;;;;;;5127226;27;20475;-77
2022/04/22 07:51:52;;;;;;;17.13;12.70;;;14.50;99.90;;;;;;5120509;27;20477;-76
2022/04/22 07:54:19;;;;;;;20.20;13.43;;;14.60;99.90;;;;;;5126938;27;20448;-79
2022/04/22 07:56:46;;;;;;;19.73;14.00;;;14.80;99.90;;;;;;5111393;28;20462;-77
2022/04/22 07:59:13;;;;;;;18.43;13.27;;;14.80;99.90;;;;;;5119641;27;20526;-79
2022/04/22 08:01:39;;;;;;;22.07;12.83;;;14.60;99.90;;;;;;5117453;27;20448;-79
2022/04/22 08:04:09;;;;;;;21.20;14.37;;;14.90;99.90;;;;;;5117601;27;20944;-80
2022/04/22 08:06:37;;;;;;;20.70;13.77;;;15.10;99.90;;;;;;5119520;27;20457;-78
2022/04/22 08:09:03;;;;;;;17.87;12.50;;;15.30;99.90;;;;;;5120068;27;20836;-77
2022/04/22 08:11:31;;;;;;;21.70;13.50;;;15.70;99.90;;;;;;5117007;27;20449;-76
2022/04/22 08:13:58;;;;;;;22.93;13.93;;;15.90;99.90;;;;;;5119112;27;20826;-77
2022/04/22 08:16:25;;;;;;;16.47;12.03;;;15.90;99.90;;;;;;5116404;27;20441;-76
2022/04/22 08:18:51;;;;;;;15.77;12.00;;;15.90;99.90;;;;;;5121897;27;20441;-75
2022/04/22 08:21:19;;;;;;;16.93;12.30;;;15.80;99.90;;;;;;5112299;27;20453;-74
2022/04/22 08:23:48;;;;;;;14.77;11.47;;;15.80;99.90;;;;;;5112041;27;20509;-74
2022/04/22 08:26:15;;;;;;;19.27;13.63;;;15.80;99.90;;;;;;5119199;27;20452;-74
2022/04/22 08:28:43;;;;;;;17.73;13.20;;;15.90;99.90;;;;;;5115531;27;20510;-75
2022/04/22 08:31:10;;;;;;;21.73;12.98;;;15.70;99.90;;;;;;5116629;27;20438;-76
2022/04/22 08:33:38;;;;;;;15.57;11.53;;;16.00;99.90;;;;;;5115326;27;20249;-75
2022/04/22 08:36:05;;;;;;;15.50;12.17;;;16.20;99.90;;;;;;5127534;27;20456;-75
2022/04/22 08:38:33;;;;;;;17.17;12.03;;;16.40;99.90;;;;;;5095043;27;20533;-75
2022/04/22 08:41:02;;;;;;;17.37;12.30;;;16.50;99.90;;;;;;5097349;28;20482;-75
2022/04/22 08:43:30;;;;;;;16.37;12.23;;;16.50;99.90;;;;;;5092484;28;20528;-75
2022/04/22 08:45:57;;;;;;;18.40;12.67;;;16.40;99.90;;;;;;5092284;28;20429;-75
2022/04/22 08:51:09;;;;;;;14.90;11.77;;;16.40;99.90;;;;;;5099828;28;20457;-76
2022/04/22 08:53:40;;;;;;;15.87;12.13;;;16.70;99.90;;;;;;5099635;28;21012;-75
2022/04/22 08:56:10;;;;;;;15.90;10.90;;;16.80;99.90;;;;;;5104898;28;20943;-76
2022/04/22 08:58:37;;;;;;;14.93;11.20;;;17.10;99.90;;;;;;5103081;28;20961;-77
2022/04/22 09:01:05;;;;;;;13.67;10.97;;;17.40;99.90;;;;;;5099749;28;20536;-76
2022/04/22 09:03:32;;;;;;;15.27;11.97;;;17.50;99.90;;;;;;5100611;28;20446;-79
2022/04/22 09:06:00;;;;;;;15.40;11.00;;;17.50;99.90;;;;;;5100336;28;20450;-77
2022/04/22 09:08:28;;;;;;;16.70;11.83;;;17.50;99.90;;;;;;5096146;28;21553;-77
2022/04/22 09:10:57;;;;;;;20.57;12.30;;;17.40;99.90;;;;;;5099463;28;20467;-77
2022/04/22 09:13:30;;;;;;;19.73;11.47;;;17.30;99.90;;;;;;5103529;28;20855;-77
2022/04/22 09:15:58;;;;;;;16.53;11.43;;;17.50;99.90;;;;;;5100185;28;20486;-77
2022/04/22 09:18:26;;;;;;;15.03;11.33;;;17.70;99.90;;;;;;5097728;28;20421;-77
2022/04/22 09:20:56;;;;;;;15.77;11.60;;;18.10;99.90;;;;;;5094874;28;20466;-78
2022/04/22 09:23:24;;;;;;;18.00;10.83;;;18.10;99.90;;;;;;5092999;28;20500;-77
2022/04/22 09:25:51;;;;;;;13.67;11.37;;;18.40;99.90;;;;;;5093973;28;20433;-77
2022/04/22 09:28:19;;;;;;;15.60;11.20;;;18.30;99.90;;;;;;5097129;28;20440;-77
2022/04/22 09:30:56;;;;;;;17.70;11.73;;;18.20;99.90;;;;;;5099515;28;20507;-79
2022/04/22 09:33:23;;;;;;;15.80;11.80;;;18.20;99.90;;;;;;5098137;28;20466;-78
2022/04/22 09:44:23;;;;;;;15.87;11.60;;;17.80;99.90;;;;;;5096881;28;20804;-78
2022/04/22 09:46:50;;;;;;;19.13;11.60;;;17.80;99.90;;;;;;5092946;28;20530;-77
2022/04/22 09:49:39;;;;;;;17.83;12.27;;;17.60;99.90;;;;;;5108972;28;21057;-78
2022/04/22 09:52:06;;;;;;;14.87;10.60;;;17.90;99.90;;;;;;5102309;28;20744;-78
2022/04/22 09:54:32;;;;;;;13.60;10.87;;;18.20;99.90;;;;;;5100513;28;20421;-78
2022/04/22 09:57:00;;;;;;;15.17;11.60;;;18.10;99.90;;;;;;5099559;28;20416;-78
2022/04/22 09:59:30;;;;;;;16.57;11.60;;;18.10;99.90;;;;;;5094248;28;21001;-78
2022/04/22 10:01:57;;;;;;;15.50;11.33;;;18.20;99.90;;;;;;5092805;28;20421;-77
2022/04/22 10:04:24;;;;;;;18.27;11.60;;;18.10;99.90;;;;;;5094428;28;20499;-77
2022/04/22 10:06:51;;;;;;;16.70;11.53;;;18.30;99.90;;;;;;5106098;28;20489;-77
2022/04/22 10:09:19;;;;;;;18.00;11.43;;;18.40;99.90;;;;;;5106485;28;20510;-79
2022/04/22 10:11:47;;;;;;;19.87;11.73;;;18.80;99.90;;;;;;5104535;28;20482;-77
2022/04/22 10:14:16;;;;;;;14.30;11.27;;;18.70;99.90;;;;;;5104936;28;20536;-78
2022/04/22 10:16:44;;;;;;;15.90;12.07;;;18.50;99.90;;;;;;5093043;28;20522;-78
2022/04/22 10:19:11;;;;;;;15.90;11.90;;;18.70;99.90;;;;;;5107006;28;20432;-77
2022/04/22 10:21:40;;;;;;;22.50;13.57;;;19.00;99.90;;;;;;5103987;28;20420;-78
2022/04/22 10:24:08;;;;;;;16.10;11.63;;;19.30;99.90;;;;;;5097549;28;20913;-78
2022/04/22 10:26:35;;;;;;;17.03;12.10;;;19.50;99.90;;;;;;5098384;28;20435;-78
2022/04/22 10:29:03;;;;;;;18.77;11.70;;;19.10;99.90;;;;;;5099242;28;20582;-78
2022/04/22 10:31:31;;;;;;;16.00;12.30;;;19.00;99.90;;;;;;5098218;28;20481;-78
2022/04/22 10:34:07;;;;;;;17.37;12.57;;;19.00;99.90;;;;;;5095172;28;20456;-78
2022/04/22 10:36:34;;;;;;;18.07;13.10;;;19.00;99.90;;;;;;5095691;28;20435;-78
2022/04/22 10:39:02;;;;;;;19.13;13.60;;;19.00;99.90;;;;;;5097705;28;20492;-78
2022/04/22 10:41:29;;;;;;;20.60;14.70;;;18.90;99.90;;;;;;5106921;28;20428;-78
2022/04/22 10:49:40;;;;;;;17.47;13.20;;;19.50;99.90;;;;;;5065783;28;20460;-78
2022/04/22 10:52:13;;;;;;;16.73;12.73;;;19.80;99.90;;;;;;5101585;28;20515;-77
2022/04/22 10:55:08;;;;;;;19.70;12.67;;;19.60;99.90;;;;;;5102400;28;20414;-78
2022/04/22 10:57:35;;;;;;;16.10;13.40;;;19.40;99.90;;;;;;5102771;28;20432;-77
2022/04/22 11:00:05;;;;;;;17.50;13.43;;;19.60;99.90;;;;;;5107911;28;20472;-77
2022/04/22 11:02:33;;;;;;;21.30;15.07;;;19.70;99.90;;;;;;5101971;28;20438;-78
2022/04/22 11:05:39;;;;;;;18.90;13.90;;;19.80;99.90;;;;;;5100983;28;20982;-75
2022/04/22 11:08:07;;;;;;;18.07;13.50;;;20.10;99.90;;;;;;5104247;28;20452;-77
2022/04/22 11:11:02;;;;;;;20.70;14.23;;;20.30;99.90;;;;;;5100832;28;20462;-75
2022/04/22 11:13:29;;;;;;;28.00;15.73;;;20.30;99.90;;;;;;5100435;28;20492;-75
2022/04/22 11:16:00;;;;;;;38.17;22.00;;;20.20;99.90;;;;;;5101770;28;20824;-78
2022/04/22 11:18:27;;;;;;;23.03;16.80;;;20.10;99.90;;;;;;5099072;28;20957;-75
2022/04/22 11:21:02;;;;;;;20.77;15.73;;;20.40;99.90;;;;;;5105767;28;20469;-76
2022/04/22 11:23:36;;;;;;;20.60;15.77;;;20.50;99.90;;;;;;5102167;28;20472;-76
2022/04/22 11:26:03;;;;;;;24.00;16.10;;;20.20;99.90;;;;;;5100305;28;20458;-76
2022/04/22 11:28:35;;;;;;;26.27;16.30;;;20.20;99.90;;;;;;5102958;28;20881;-76
2022/04/22 11:31:05;;;;;;;21.97;16.40;;;20.30;99.90;;;;;;5105713;28;20572;-76
2022/04/22 11:33:44;;;;;;;18.27;13.87;;;20.50;99.90;;;;;;5108839;28;20569;-76
2022/04/22 11:36:12;;;;;;;19.77;14.87;;;20.50;99.90;;;;;;5098389;28;20505;-76
2022/04/22 11:38:46;;;;;;;22.07;15.87;;;20.10;99.90;;;;;;5108136;28;20446;-75
2022/04/22 11:41:14;;;;;;;21.10;15.57;;;19.80;99.90;;;;;;5102897;28;20487;-76
2022/04/22 11:43:41;;;;;;;22.20;15.00;;;19.60;99.90;;;;;;5097230;28;20504;-76
2022/04/22 11:46:09;;;;;;;21.00;15.50;;;19.70;99.90;;;;;;5095549;28;20422;-76
2022/04/22 11:48:44;;;;;;;20.80;15.00;;;19.90;99.90;;;;;;5103454;28;20432;-76
2022/04/22 11:51:12;;;;;;;21.97;15.00;;;19.80;99.90;;;;;;5098236;28;20440;-76
2022/04/22 11:53:46;;;;;;;19.83;15.30;;;19.70;99.90;;;;;;5102622;28;20829;-76
2022/04/22 11:56:18;;;;;;;19.30;14.87;;;19.80;99.90;;;;;;5093995;28;20560;-76
2022/04/22 11:58:45;;;;;;;21.37;14.90;;;19.50;99.90;;;;;;5107555;28;20481;-76
2022/04/22 12:06:41;;;;;;;29.90;18.60;;;19.90;99.90;;;;;;5100576;28;20776;-75
2022/04/22 12:09:08;;;;;;;23.10;16.43;;;19.60;99.90;;;;;;5097458;28;20454;-75
2022/04/22 12:11:41;;;;;;;22.70;16.20;;;19.80;99.90;;;;;;5105664;28;20477;-76
2022/04/22 12:14:07;;;;;;;21.87;14.57;;;19.90;99.90;;;;;;5093389;28;20543;-77
2022/04/22 12:16:34;;;;;;;20.37;15.03;;;19.70;99.90;;;;;;5100110;28;21183;-75
2022/04/22 12:19:01;;;;;;;23.93;15.93;;;19.90;99.90;;;;;;5093528;28;20533;-76
2022/04/22 12:21:33;;;;;;;23.20;14.20;;;20.10;99.90;;;;;;5099434;28;20471;-76
2022/04/22 12:24:02;;;;;;;18.93;15.00;;;20.10;99.90;;;;;;5095288;28;20448;-77
2022/04/22 12:26:32;;;;;;;18.97;14.00;;;20.10;99.90;;;;;;5107507;28;20461;-76
2022/04/22 12:29:00;;;;;;;17.73;13.70;;;20.30;99.90;;;;;;5108894;28;20416;-76
2022/04/22 12:31:29;;;;;;;17.10;13.23;;;20.70;99.90;;;;;;5101506;28;20491;-76
2022/04/22 12:34:00;;;;;;;19.30;14.00;;;21.20;99.90;;;;;;5093157;28;20486;-76
2022/04/22 12:36:28;;;;;;;17.83;14.47;;;21.10;99.90;;;;;;5099658;28;20442;-76
2022/04/22 12:38:55;;;;;;;18.30;13.50;;;20.50;99.90;;;;;;5096343;28;20447;-75
2022/04/22 12:41:26;;;;;;;17.90;13.00;;;20.20;99.90;;;;;;5106817;28;20902;-76
2022/04/22 12:43:54;;;;;;;19.70;15.00;;;20.00;99.90;;;;;;5099050;28;20446;-76
2022/04/22 12:52:11;;;;;;;15.27;12.50;;;19.70;99.90;;;;;;5098150;28;20454;-76
2022/04/22 12:54:39;;;;;;;18.27;14.20;;;20.20;99.90;;;;;;5094591;28;20480;-76
2022/04/22 12:57:11;;;;;;;20.57;14.30;;;20.20;99.90;;;;;;5095423;28;20461;-76
2022/04/22 12:59:45;;;;;;;17.80;13.27;;;20.10;99.90;;;;;;5100221;28;20515;-75
2022/04/22 13:02:13;;;;;;;18.00;13.00;;;19.80;99.90;;;;;;5100344;28;20451;-75
2022/04/22 13:04:57;;;;;;;14.97;11.60;;;19.80;99.90;;;;;;5096151;28;20950;-75
2022/04/22 13:07:24;;;;;;;17.40;13.37;;;19.70;99.90;;;;;;5097914;28;20861;-75
2022/04/22 13:09:51;;;;;;;15.17;12.10;;;19.70;99.90;;;;;;5094241;28;20445;-75
2022/04/22 13:12:19;;;;;;;20.77;13.47;;;19.70;99.90;;;;;;5100936;28;20420;-78
2022/04/22 13:14:46;;;;;;;13.87;11.67;;;19.60;99.90;;;;;;5100480;28;20469;-78
2022/04/22 13:17:25;;;;;;;17.20;13.37;;;19.70;99.90;;;;;;5102509;28;21160;-78
2022/04/22 13:19:52;;;;;;;16.87;12.87;;;19.60;99.90;;;;;;5094649;28;20497;-79
2022/04/22 13:22:19;;;;;;;20.00;12.00;;;19.60;99.90;;;;;;5101707;28;20412;-77
2022/04/22 13:24:46;;;;;;;17.00;12.40;;;19.70;99.90;;;;;;5098576;28;20462;-77
2022/04/22 13:27:13;;;;;;;16.10;12.47;;;19.80;99.90;;;;;;5107022;28;20420;-75
2022/04/22 13:29:42;;;;;;;15.10;10.90;;;19.60;99.90;;;;;;5103949;28;20429;-76
2022/04/22 13:32:10;;;;;;;15.37;11.60;;;19.60;99.90;;;;;;5101350;28;20949;-76
2022/04/22 13:34:36;;;;;;;15.97;12.20;;;19.70;99.90;;;;;;5099470;28;21004;-76
2022/04/22 13:37:03;;;;;;;15.23;12.00;;;19.70;99.90;;;;;;5092696;28;20443;-76
2022/04/22 13:39:30;;;;;;;16.57;12.00;;;19.60;99.90;;;;;;5096784;28;20531;-76
2022/04/22 13:41:56;;;;;;;16.57;13.00;;;19.40;99.90;;;;;;5103006;28;20450;-76